Blue Star 1 — SWET — position and weather

sailwx.info

Track history (hours):
 
Tides and Currents Weather Stations Pressure Air Temp Water Temp Dewpoint Dewpoint Depression Visibility Wind Speed Wind Dir Waves Ship Positions

Blue Star 1

Last reported at 2015-Jan-31 08:17 UTC. Time now 2015-Jan-31 11:42 UTC.
Position N 35°21' E 025°09'.

Length 176 m; draft 6.5 m.

Type: Passenger vessel. MMSI: 239710000.

Date/timePositionNaut miles runAvg speedWind from/ knotsBaromVisibWave heightAir tempDewpointWater temp
2015-Jan-31 08:17N 35°21' E 025°09'148 4.2
2015-Jan-29 21:06N 37°33' E 023°46'1120.1
2015-Jan-29 20:33N 37°43' E 023°40'1413.7
2015-Jan-29 19:33N 37°57' E 023°38'0 0.0
2015-Jan-29 18:32N 37°57' E 023°38'0 0.0
2015-Jan-29 17:32N 37°57' E 023°38'0 0.0
2015-Jan-29 16:32N 37°57' E 023°38'0 0.0
2015-Jan-29 15:32N 37°57' E 023°38'0 0.0
2015-Jan-29 14:32N 37°57' E 023°38'0 0.0
2015-Jan-29 13:31N 37°57' E 023°38'0 0.0
2015-Jan-29 12:31N 37°57' E 023°38'0 0.0
2015-Jan-29 11:31N 37°57' E 023°38'0 0.0
2015-Jan-29 10:31N 37°57' E 023°38'0 0.0
2015-Jan-29 09:31N 37°57' E 023°38'0 0.0
2015-Jan-29 08:31N 37°57' E 023°38'0 0.0
2015-Jan-29 07:25N 37°57' E 023°38'0 0.0
2015-Jan-29 06:30N 37°57' E 023°38'0 0.0
2015-Jan-29 05:30N 37°57' E 023°38'0 0.0
2015-Jan-29 04:33N 37°57' E 023°38'0 0.0
2015-Jan-29 03:33N 37°57' E 023°38'0 0.0
2015-Jan-29 02:33N 37°57' E 023°38'0 0.0
2015-Jan-29 01:33N 37°57' E 023°38'0 0.0
2015-Jan-29 00:33N 37°57' E 023°38'0 0.0
2015-Jan-28 23:33N 37°57' E 023°38'0 0.0
2015-Jan-28 22:33N 37°57' E 023°38'0 0.0
2015-Jan-28 21:33N 37°57' E 023°38'0 0.0
2015-Jan-28 20:33N 37°57' E 023°38'1 0.7
2015-Jan-28 19:34N 37°56' E 023°37'0 0.0
2015-Jan-28 18:33N 37°56' E 023°37'0 0.0
2015-Jan-28 17:34N 37°56' E 023°37'0 0.0
2015-Jan-28 16:33N 37°56' E 023°37'0 0.0
2015-Jan-28 15:34N 37°56' E 023°37'0 0.1
2015-Jan-28 14:34N 37°56' E 023°37'0 0.0
2015-Jan-28 13:34N 37°56' E 023°37'0 0.0
2015-Jan-28 12:34N 37°56' E 023°37'0 0.0
2015-Jan-28 11:34N 37°56' E 023°37'2 1.6
2015-Jan-28 10:33N 37°55' E 023°36'2221.7
2015-Jan-28 09:33N 37°34' E 023°40'4 3.8
2015-Jan-28 08:28N 37°31' E 023°36'4 4.8
2015-Jan-28 07:33N 37°34' E 023°40'1211.8
2015-Jan-28 06:33N 37°46' E 023°36'1211.8
2015-Jan-28 05:33N 37°57' E 023°34'1 0.6
2015-Jan-28 04:33N 37°58' E 023°33'0 0.0
2015-Jan-28 03:31N 37°58' E 023°33'0 0.0
2015-Jan-28 02:31N 37°58' E 023°33'0 0.0
2015-Jan-28 01:31N 37°58' E 023°33'0 0.0
2015-Jan-28 00:33N 37°58' E 023°33'0 0.0
2015-Jan-27 23:33N 37°58' E 023°33'0 0.0
2015-Jan-27 22:33N 37°58' E 023°33'0 0.0
2015-Jan-27 21:30N 37°58' E 023°33'0 0.0
2015-Jan-27 20:33N 37°58' E 023°33'0 0.0
2015-Jan-27 19:33N 37°58' E 023°33'0 0.0
2015-Jan-27 18:33N 37°58' E 023°33'0 0.0
2015-Jan-27 17:33N 37°58' E 023°33'0 0.0
2015-Jan-27 16:30N 37°58' E 023°33'0 0.0
2015-Jan-27 15:33N 37°58' E 023°33'0 0.0
2015-Jan-27 14:30N 37°58' E 023°33'0 0.0
2015-Jan-27 13:33N 37°58' E 023°33'0 0.0
2015-Jan-27 12:32N 37°58' E 023°33'0 0.0
2015-Jan-27 11:26N 37°58' E 023°33'0 0.0
2015-Jan-27 10:32N 37°58' E 023°33'0 0.0
2015-Jan-27 09:29N 37°58' E 023°33'0 0.0
2015-Jan-27 08:32N 37°58' E 023°33'0 0.0
2015-Jan-27 07:32N 37°58' E 023°33'0 0.0
2015-Jan-27 06:29N 37°58' E 023°33'0 0.0
2015-Jan-27 05:32N 37°58' E 023°33'0 0.0
2015-Jan-27 04:32N 37°58' E 023°33'0 0.0
2015-Jan-27 03:32N 37°58' E 023°33'0 0.0
2015-Jan-27 02:31N 37°58' E 023°33'0 0.0
2015-Jan-27 01:31N 37°58' E 023°33'0 0.0
2015-Jan-27 00:31N 37°58' E 023°33'0 0.0
2015-Jan-26 23:31N 37°58' E 023°33'0 0.0
2015-Jan-26 22:31N 37°58' E 023°33'0 0.0
2015-Jan-26 21:28N 37°58' E 023°33'0 0.0
2015-Jan-26 20:31N 37°58' E 023°33'0 0.0
2015-Jan-26 19:31N 37°58' E 023°33'0 0.0
2015-Jan-26 18:31N 37°58' E 023°33'0 0.0
2015-Jan-26 17:31N 37°58' E 023°33'0 0.0
2015-Jan-26 16:31N 37°58' E 023°33'0 0.0
2015-Jan-26 15:31N 37°58' E 023°33'0 0.0
2015-Jan-26 14:31N 37°58' E 023°33'0 0.0
2015-Jan-26 13:31N 37°58' E 023°33'0 0.0
2015-Jan-26 12:27N 37°58' E 023°33'0 0.0
2015-Jan-26 11:33N 37°58' E 023°33'0 0.0
2015-Jan-26 10:30N 37°58' E 023°33'0 0.0
2015-Jan-26 09:30N 37°58' E 023°33'0 0.0
2015-Jan-26 08:30N 37°58' E 023°33'0 0.0
2015-Jan-26 07:33N 37°58' E 023°33'0 0.0
2015-Jan-26 06:30N 37°58' E 023°33'0 0.0
2015-Jan-26 05:33N 37°58' E 023°33'0 0.0
2015-Jan-26 04:30N 37°58' E 023°33'0 0.0
2015-Jan-26 03:32N 37°58' E 023°33'0 0.0
2015-Jan-26 02:32N 37°58' E 023°33'0 0.0
2015-Jan-26 01:29N 37°58' E 023°33'0 0.0
2015-Jan-26 00:32N 37°58' E 023°33'0 0.0
2015-Jan-25 23:32N 37°58' E 023°33'0 0.0
2015-Jan-25 22:32N 37°58' E 023°33'0 0.0
2015-Jan-25 21:32N 37°58' E 023°33'0 0.0
2015-Jan-25 20:32N 37°58' E 023°33'0 0.0
2015-Jan-25 19:32N 37°58' E 023°33'0 0.0
2015-Jan-25 18:05N 37°58' E 023°33'0 0.0
2015-Jan-25 17:05N 37°58' E 023°33'0 0.0
2015-Jan-25 14:04N 37°58' E 023°33'0 0.0
2015-Jan-25 13:22N 37°58' E 023°33'0 0.0
2015-Jan-25 12:25N 37°58' E 023°33'0 0.0
2015-Jan-25 10:19N 37°58' E 023°33'0 0.0
2015-Jan-25 09:04N 37°58' E 023°33'0 0.0
2015-Jan-25 08:22N 37°58' E 023°33'0 0.0
2015-Jan-25 06:04N 37°58' E 023°33'0 0.0
2015-Jan-25 04:28N 37°58' E 023°33'0 0.0
2015-Jan-25 03:22N 37°58' E 023°33'0 0.0
2015-Jan-25 02:04N 37°58' E 023°33'0 0.0
2015-Jan-25 01:33N 37°58' E 023°33'0 0.0
2015-Jan-25 00:33N 37°58' E 023°33'0 0.0
2015-Jan-24 23:33N 37°58' E 023°33'0 0.0
2015-Jan-24 22:33N 37°58' E 023°33'0 0.0
2015-Jan-24 21:33N 37°58' E 023°33'0 0.0
2015-Jan-24 20:33N 37°58' E 023°33'0 0.0
2015-Jan-24 19:33N 37°58' E 023°33'0 0.0
2015-Jan-24 18:33N 37°58' E 023°33'0 0.0
2015-Jan-24 17:33N 37°58' E 023°33'0 0.0
2015-Jan-24 16:30N 37°58' E 023°33'0 0.0
2015-Jan-24 15:33N 37°58' E 023°33'0 0.0
2015-Jan-24 14:33N 37°58' E 023°33'0 0.0
2015-Jan-24 13:33N 37°58' E 023°33'0 0.0
2015-Jan-24 12:32N 37°58' E 023°33'0 0.0
2015-Jan-24 11:32N 37°58' E 023°33'0 0.0
2015-Jan-24 10:32N 37°58' E 023°33'0 0.0
2015-Jan-24 09:32N 37°58' E 023°33'0 0.0
2015-Jan-24 08:32N 37°58' E 023°33'0 0.0
2015-Jan-24 07:32N 37°58' E 023°33'0 0.0
2015-Jan-24 06:32N 37°58' E 023°33'0 0.0
2015-Jan-24 05:32N 37°58' E 023°33'0 0.0
2015-Jan-24 04:26N 37°58' E 023°33'0 0.0
2015-Jan-24 03:32N 37°58' E 023°33'0 0.0
2015-Jan-24 02:32N 37°58' E 023°33'0 0.0
2015-Jan-24 01:32N 37°58' E 023°33'0 0.0
2015-Jan-24 00:32N 37°58' E 023°33'0 0.0
2015-Jan-23 23:32N 37°58' E 023°33'0 0.0
2015-Jan-23 22:31N 37°58' E 023°33'0 0.0
2015-Jan-23 21:31N 37°58' E 023°33'0 0.0
2015-Jan-23 20:31N 37°58' E 023°33'0 0.0
2015-Jan-23 19:31N 37°58' E 023°33'0 0.0
2015-Jan-23 18:31N 37°58' E 023°33'0 0.0
2015-Jan-23 17:31N 37°58' E 023°33'0 0.0
2015-Jan-23 16:31N 37°58' E 023°33'0 0.0
2015-Jan-23 15:31N 37°58' E 023°33'0 0.0
2015-Jan-23 14:31N 37°58' E 023°33'0 0.0
2015-Jan-23 13:31N 37°58' E 023°33'0 0.0
2015-Jan-23 12:31N 37°58' E 023°33'0 0.0
2015-Jan-23 11:34N 37°58' E 023°33'0 0.0
2015-Jan-23 10:33N 37°58' E 023°33'0 0.0
2015-Jan-23 09:33N 37°58' E 023°33'0 0.0
2015-Jan-23 08:33N 37°58' E 023°33'0 0.0
2015-Jan-23 07:33N 37°58' E 023°33'0 0.0
2015-Jan-23 06:30N 37°58' E 023°33'0 0.0
2015-Jan-23 05:33N 37°58' E 023°33'0 0.0
2015-Jan-23 04:30N 37°58' E 023°33'0 0.0
2015-Jan-23 03:33N 37°58' E 023°33'0 0.0
2015-Jan-23 02:33N 37°58' E 023°33'0 0.0
2015-Jan-23 01:33N 37°58' E 023°33'0 0.0
2015-Jan-23 00:33N 37°58' E 023°33'0 0.0
2015-Jan-22 23:32N 37°58' E 023°33'0 0.0
2015-Jan-22 22:32N 37°58' E 023°33'0 0.0
2015-Jan-22 21:32N 37°58' E 023°33'0 0.0
2015-Jan-22 20:32N 37°58' E 023°33'0 0.0
2015-Jan-22 19:32N 37°58' E 023°33'0 0.0
2015-Jan-22 18:32N 37°58' E 023°33'0 0.0
2015-Jan-22 17:32N 37°58' E 023°33'0 0.0
2015-Jan-22 16:32N 37°58' E 023°33'0 0.0
2015-Jan-22 15:30N 37°58' E 023°33'0 0.0
2015-Jan-22 14:32N 37°58' E 023°33'0 0.0
2015-Jan-22 13:32N 37°58' E 023°33'0 0.0
2015-Jan-22 12:32N 37°58' E 023°33'0 0.0
2015-Jan-22 11:32N 37°58' E 023°33'0 0.0
2015-Jan-22 10:31N 37°58' E 023°33'0 0.0
2015-Jan-22 09:28N 37°58' E 023°33'0 0.0
2015-Jan-22 08:31N 37°58' E 023°33'0 0.0
2015-Jan-22 07:31N 37°58' E 023°33'0 0.0
2015-Jan-22 06:31N 37°58' E 023°33'0 0.0
2015-Jan-22 05:31N 37°58' E 023°33'0 0.0
2015-Jan-22 04:31N 37°58' E 023°33'0 0.0
2015-Jan-22 03:28N 37°58' E 023°33'0 0.0
2015-Jan-22 02:31N 37°58' E 023°33'0 0.0
2015-Jan-22 01:25N 37°58' E 023°33'0 0.0
2015-Jan-22 00:33N 37°58' E 023°33'0 0.0
2015-Jan-21 23:33N 37°58' E 023°33'0 0.0
2015-Jan-21 22:48N 37°58' E 023°33'0 0.0
2015-Jan-21 22:45N 37°58' E 023°33'0 0.0
2015-Jan-21 22:33N 37°58' E 023°33'0 0.0
2015-Jan-21 21:33N 37°58' E 023°33'0 0.0
2015-Jan-21 20:33N 37°58' E 023°33'0 0.0
2015-Jan-21 19:33N 37°58' E 023°33'0 0.0
2015-Jan-21 18:33N 37°58' E 023°33'0 0.0
2015-Jan-21 17:33N 37°58' E 023°33'0 0.0
2015-Jan-21 16:33N 37°58' E 023°33'0 0.0
2015-Jan-21 15:33N 37°58' E 023°33'0 0.0
2015-Jan-21 14:33N 37°58' E 023°33'0 0.0
2015-Jan-21 13:30N 37°58' E 023°33'0 0.0
2015-Jan-21 12:32N 37°58' E 023°33'0 0.0
2015-Jan-21 11:32N 37°58' E 023°33'0 0.0
2015-Jan-21 10:29N 37°58' E 023°33'0 0.0
2015-Jan-21 09:32N 37°58' E 023°33'0 0.0
2015-Jan-21 08:32N 37°58' E 023°33'  
Track history (hours):
 
Tides and Currents Weather Stations Pressure Air Temp Water Temp Dewpoint Dewpoint Depression Visibility Wind Speed Wind Dir Waves Ship Positions

Blue Star 1

Last reported at 2015-Jan-31 08:17 UTC. Time now 2015-Jan-31 11:42 UTC.
Position N 35°21' E 025°09'.

Length 176 m; draft 6.5 m.

Type: Passenger vessel. MMSI: 239710000.

Date/timePositionNaut miles runAvg speedWind from/ knotsBaromVisibWave heightAir tempDewpointWater temp
2015-Jan-31 08:17N 35°21' E 025°09'148 4.2
2015-Jan-29 21:06N 37°33' E 023°46'1120.1
2015-Jan-29 20:33N 37°43' E 023°40'1413.7
2015-Jan-29 19:33N 37°57' E 023°38'0 0.0
2015-Jan-29 18:32N 37°57' E 023°38'0 0.0
2015-Jan-29 17:32N 37°57' E 023°38'0 0.0
2015-Jan-29 16:32N 37°57' E 023°38'0 0.0
2015-Jan-29 15:32N 37°57' E 023°38'0 0.0
2015-Jan-29 14:32N 37°57' E 023°38'0 0.0
2015-Jan-29 13:31N 37°57' E 023°38'0 0.0
2015-Jan-29 12:31N 37°57' E 023°38'0 0.0
2015-Jan-29 11:31N 37°57' E 023°38'0 0.0
2015-Jan-29 10:31N 37°57' E 023°38'0 0.0
2015-Jan-29 09:31N 37°57' E 023°38'0 0.0
2015-Jan-29 08:31N 37°57' E 023°38'0 0.0
2015-Jan-29 07:25N 37°57' E 023°38'0 0.0
2015-Jan-29 06:30N 37°57' E 023°38'0 0.0
2015-Jan-29 05:30N 37°57' E 023°38'0 0.0
2015-Jan-29 04:33N 37°57' E 023°38'0 0.0
2015-Jan-29 03:33N 37°57' E 023°38'0 0.0
2015-Jan-29 02:33N 37°57' E 023°38'0 0.0
2015-Jan-29 01:33N 37°57' E 023°38'0 0.0
2015-Jan-29 00:33N 37°57' E 023°38'0 0.0
2015-Jan-28 23:33N 37°57' E 023°38'0 0.0
2015-Jan-28 22:33N 37°57' E 023°38'0 0.0
2015-Jan-28 21:33N 37°57' E 023°38'0 0.0
2015-Jan-28 20:33N 37°57' E 023°38'1 0.7
2015-Jan-28 19:34N 37°56' E 023°37'0 0.0
2015-Jan-28 18:33N 37°56' E 023°37'0 0.0
2015-Jan-28 17:34N 37°56' E 023°37'0 0.0
2015-Jan-28 16:33N 37°56' E 023°37'0 0.0
2015-Jan-28 15:34N 37°56' E 023°37'0 0.1
2015-Jan-28 14:34N 37°56' E 023°37'0 0.0
2015-Jan-28 13:34N 37°56' E 023°37'0 0.0
2015-Jan-28 12:34N 37°56' E 023°37'0 0.0
2015-Jan-28 11:34N 37°56' E 023°37'2 1.6
2015-Jan-28 10:33N 37°55' E 023°36'2221.7
2015-Jan-28 09:33N 37°34' E 023°40'4 3.8
2015-Jan-28 08:28N 37°31' E 023°36'4 4.8
2015-Jan-28 07:33N 37°34' E 023°40'1211.8
2015-Jan-28 06:33N 37°46' E 023°36'1211.8
2015-Jan-28 05:33N 37°57' E 023°34'1 0.6
2015-Jan-28 04:33N 37°58' E 023°33'0 0.0
2015-Jan-28 03:31N 37°58' E 023°33'0 0.0
2015-Jan-28 02:31N 37°58' E 023°33'0 0.0
2015-Jan-28 01:31N 37°58' E 023°33'0 0.0
2015-Jan-28 00:33N 37°58' E 023°33'0 0.0
2015-Jan-27 23:33N 37°58' E 023°33'0 0.0
2015-Jan-27 22:33N 37°58' E 023°33'0 0.0
2015-Jan-27 21:30N 37°58' E 023°33'0 0.0
2015-Jan-27 20:33N 37°58' E 023°33'0 0.0
2015-Jan-27 19:33N 37°58' E 023°33'0 0.0
2015-Jan-27 18:33N 37°58' E 023°33'0 0.0
2015-Jan-27 17:33N 37°58' E 023°33'0 0.0
2015-Jan-27 16:30N 37°58' E 023°33'0 0.0
2015-Jan-27 15:33N 37°58' E 023°33'0 0.0
2015-Jan-27 14:30N 37°58' E 023°33'0 0.0
2015-Jan-27 13:33N 37°58' E 023°33'0 0.0
2015-Jan-27 12:32N 37°58' E 023°33'0 0.0
2015-Jan-27 11:26N 37°58' E 023°33'0 0.0
2015-Jan-27 10:32N 37°58' E 023°33'0 0.0
2015-Jan-27 09:29N 37°58' E 023°33'0 0.0
2015-Jan-27 08:32N 37°58' E 023°33'0 0.0
2015-Jan-27 07:32N 37°58' E 023°33'0 0.0
2015-Jan-27 06:29N 37°58' E 023°33'0 0.0
2015-Jan-27 05:32N 37°58' E 023°33'0 0.0
2015-Jan-27 04:32N 37°58' E 023°33'0 0.0
2015-Jan-27 03:32N 37°58' E 023°33'0 0.0
2015-Jan-27 02:31N 37°58' E 023°33'0 0.0
2015-Jan-27 01:31N 37°58' E 023°33'0 0.0
2015-Jan-27 00:31N 37°58' E 023°33'0 0.0
2015-Jan-26 23:31N 37°58' E 023°33'0 0.0
2015-Jan-26 22:31N 37°58' E 023°33'0 0.0
2015-Jan-26 21:28N 37°58' E 023°33'0 0.0
2015-Jan-26 20:31N 37°58' E 023°33'0 0.0
2015-Jan-26 19:31N 37°58' E 023°33'0 0.0
2015-Jan-26 18:31N 37°58' E 023°33'0 0.0
2015-Jan-26 17:31N 37°58' E 023°33'0 0.0
2015-Jan-26 16:31N 37°58' E 023°33'0 0.0
2015-Jan-26 15:31N 37°58' E 023°33'0 0.0
2015-Jan-26 14:31N 37°58' E 023°33'0 0.0
2015-Jan-26 13:31N 37°58' E 023°33'0 0.0
2015-Jan-26 12:27N 37°58' E 023°33'0 0.0
2015-Jan-26 11:33N 37°58' E 023°33'0 0.0
2015-Jan-26 10:30N 37°58' E 023°33'0 0.0
2015-Jan-26 09:30N 37°58' E 023°33'0 0.0
2015-Jan-26 08:30N 37°58' E 023°33'0 0.0
2015-Jan-26 07:33N 37°58' E 023°33'0 0.0
2015-Jan-26 06:30N 37°58' E 023°33'0 0.0
2015-Jan-26 05:33N 37°58' E 023°33'0 0.0
2015-Jan-26 04:30N 37°58' E 023°33'0 0.0
2015-Jan-26 03:32N 37°58' E 023°33'0 0.0
2015-Jan-26 02:32N 37°58' E 023°33'0 0.0
2015-Jan-26 01:29N 37°58' E 023°33'0 0.0
2015-Jan-26 00:32N 37°58' E 023°33'0 0.0
2015-Jan-25 23:32N 37°58' E 023°33'0 0.0
2015-Jan-25 22:32N 37°58' E 023°33'0 0.0
2015-Jan-25 21:32N 37°58' E 023°33'0 0.0
2015-Jan-25 20:32N 37°58' E 023°33'0 0.0
2015-Jan-25 19:32N 37°58' E 023°33'0 0.0
2015-Jan-25 18:05N 37°58' E 023°33'0 0.0
2015-Jan-25 17:05N 37°58' E 023°33'0 0.0
2015-Jan-25 14:04N 37°58' E 023°33'0 0.0
2015-Jan-25 13:22N 37°58' E 023°33'0 0.0
2015-Jan-25 12:25N 37°58' E 023°33'0 0.0
2015-Jan-25 10:19N 37°58' E 023°33'0 0.0
2015-Jan-25 09:04N 37°58' E 023°33'0 0.0
2015-Jan-25 08:22N 37°58' E 023°33'0 0.0
2015-Jan-25 06:04N 37°58' E 023°33'0 0.0
2015-Jan-25 04:28N 37°58' E 023°33'0 0.0
2015-Jan-25 03:22N 37°58' E 023°33'0 0.0
2015-Jan-25 02:04N 37°58' E 023°33'0 0.0
2015-Jan-25 01:33N 37°58' E 023°33'0 0.0
2015-Jan-25 00:33N 37°58' E 023°33'0 0.0
2015-Jan-24 23:33N 37°58' E 023°33'0 0.0
2015-Jan-24 22:33N 37°58' E 023°33'0 0.0
2015-Jan-24 21:33N 37°58' E 023°33'0 0.0
2015-Jan-24 20:33N 37°58' E 023°33'0 0.0
2015-Jan-24 19:33N 37°58' E 023°33'0 0.0
2015-Jan-24 18:33N 37°58' E 023°33'0 0.0
2015-Jan-24 17:33N 37°58' E 023°33'0 0.0
2015-Jan-24 16:30N 37°58' E 023°33'0 0.0
2015-Jan-24 15:33N 37°58' E 023°33'0 0.0
2015-Jan-24 14:33N 37°58' E 023°33'0 0.0
2015-Jan-24 13:33N 37°58' E 023°33'0 0.0
2015-Jan-24 12:32N 37°58' E 023°33'0 0.0
2015-Jan-24 11:32N 37°58' E 023°33'0 0.0
2015-Jan-24 10:32N 37°58' E 023°33'0 0.0
2015-Jan-24 09:32N 37°58' E 023°33'0 0.0
2015-Jan-24 08:32N 37°58' E 023°33'0 0.0
2015-Jan-24 07:32N 37°58' E 023°33'0 0.0
2015-Jan-24 06:32N 37°58' E 023°33'0 0.0
2015-Jan-24 05:32N 37°58' E 023°33'0 0.0
2015-Jan-24 04:26N 37°58' E 023°33'0 0.0
2015-Jan-24 03:32N 37°58' E 023°33'0 0.0
2015-Jan-24 02:32N 37°58' E 023°33'0 0.0
2015-Jan-24 01:32N 37°58' E 023°33'0 0.0
2015-Jan-24 00:32N 37°58' E 023°33'0 0.0
2015-Jan-23 23:32N 37°58' E 023°33'0 0.0
2015-Jan-23 22:31N 37°58' E 023°33'0 0.0
2015-Jan-23 21:31N 37°58' E 023°33'0 0.0
2015-Jan-23 20:31N 37°58' E 023°33'0 0.0
2015-Jan-23 19:31N 37°58' E 023°33'0 0.0
2015-Jan-23 18:31N 37°58' E 023°33'0 0.0
2015-Jan-23 17:31N 37°58' E 023°33'0 0.0
2015-Jan-23 16:31N 37°58' E 023°33'0 0.0
2015-Jan-23 15:31N 37°58' E 023°33'0 0.0
2015-Jan-23 14:31N 37°58' E 023°33'0 0.0
2015-Jan-23 13:31N 37°58' E 023°33'0 0.0
2015-Jan-23 12:31N 37°58' E 023°33'0 0.0
2015-Jan-23 11:34N 37°58' E 023°33'0 0.0
2015-Jan-23 10:33N 37°58' E 023°33'0 0.0
2015-Jan-23 09:33N 37°58' E 023°33'0 0.0
2015-Jan-23 08:33N 37°58' E 023°33'0 0.0
2015-Jan-23 07:33N 37°58' E 023°33'0 0.0
2015-Jan-23 06:30N 37°58' E 023°33'0 0.0
2015-Jan-23 05:33N 37°58' E 023°33'0 0.0
2015-Jan-23 04:30N 37°58' E 023°33'0 0.0
2015-Jan-23 03:33N 37°58' E 023°33'0 0.0
2015-Jan-23 02:33N 37°58' E 023°33'0 0.0
2015-Jan-23 01:33N 37°58' E 023°33'0 0.0
2015-Jan-23 00:33N 37°58' E 023°33'0 0.0
2015-Jan-22 23:32N 37°58' E 023°33'0 0.0
2015-Jan-22 22:32N 37°58' E 023°33'0 0.0
2015-Jan-22 21:32N 37°58' E 023°33'0 0.0
2015-Jan-22 20:32N 37°58' E 023°33'0 0.0
2015-Jan-22 19:32N 37°58' E 023°33'0 0.0
2015-Jan-22 18:32N 37°58' E 023°33'0 0.0
2015-Jan-22 17:32N 37°58' E 023°33'0 0.0
2015-Jan-22 16:32N 37°58' E 023°33'0 0.0
2015-Jan-22 15:30N 37°58' E 023°33'0 0.0
2015-Jan-22 14:32N 37°58' E 023°33'0 0.0
2015-Jan-22 13:32N 37°58' E 023°33'0 0.0
2015-Jan-22 12:32N 37°58' E 023°33'0 0.0
2015-Jan-22 11:32N 37°58' E 023°33'0 0.0
2015-Jan-22 10:31N 37°58' E 023°33'0 0.0
2015-Jan-22 09:28N 37°58' E 023°33'0 0.0
2015-Jan-22 08:31N 37°58' E 023°33'0 0.0
2015-Jan-22 07:31N 37°58' E 023°33'0 0.0
2015-Jan-22 06:31N 37°58' E 023°33'0 0.0
2015-Jan-22 05:31N 37°58' E 023°33'0 0.0
2015-Jan-22 04:31N 37°58' E 023°33'0 0.0
2015-Jan-22 03:28N 37°58' E 023°33'0 0.0
2015-Jan-22 02:31N 37°58' E 023°33'0 0.0
2015-Jan-22 01:25N 37°58' E 023°33'0 0.0
2015-Jan-22 00:33N 37°58' E 023°33'0 0.0
2015-Jan-21 23:33N 37°58' E 023°33'0 0.0
2015-Jan-21 22:48N 37°58' E 023°33'0 0.0
2015-Jan-21 22:45N 37°58' E 023°33'0 0.0
2015-Jan-21 22:33N 37°58' E 023°33'0 0.0
2015-Jan-21 21:33N 37°58' E 023°33'0 0.0
2015-Jan-21 20:33N 37°58' E 023°33'0 0.0
2015-Jan-21 19:33N 37°58' E 023°33'0 0.0
2015-Jan-21 18:33N 37°58' E 023°33'0 0.0
2015-Jan-21 17:33N 37°58' E 023°33'0 0.0
2015-Jan-21 16:33N 37°58' E 023°33'0 0.0
2015-Jan-21 15:33N 37°58' E 023°33'0 0.0
2015-Jan-21 14:33N 37°58' E 023°33'0 0.0
2015-Jan-21 13:30N 37°58' E 023°33'0 0.0
2015-Jan-21 12:32N 37°58' E 023°33'0 0.0
2015-Jan-21 11:32N 37°58' E 023°33'0 0.0
2015-Jan-21 10:29N 37°58' E 023°33'0 0.0
2015-Jan-21 09:32N 37°58' E 023°33'0 0.0
2015-Jan-21 08:32N 37°58' E 023°33'  

Dump ship's entire track history